sensor_id;sensor_type;location;lat;lon;timestamp;temperature;humidity
44190;DHT22;29856;52.144;5.430;2022-10-17T00:01:02;15.30;99.90
44190;DHT22;29856;52.144;5.430;2022-10-17T00:03:28;15.30;99.90
44190;DHT22;29856;52.144;5.430;2022-10-17T00:05:53;15.20;99.90
44190;DHT22;29856;52.144;5.430;2022-10-17T00:08:19;15.30;99.90
44190;DHT22;29856;52.144;5.430;2022-10-17T00:10:53;15.30;99.90
44190;DHT22;29856;52.144;5.430;2022-10-17T00:13:19;15.30;99.90
44190;DHT22;29856;52.144;5.430;2022-10-17T00:15:45;15.30;99.90
44190;DHT22;29856;52.144;5.430;2022-10-17T00:18:10;15.30;99.90
44190;DHT22;29856;52.144;5.430;2022-10-17T00:20:36;15.30;99.90
44190;DHT22;29856;52.144;5.430;2022-10-17T00:23:01;15.20;99.90
44190;DHT22;29856;52.144;5.430;2022-10-17T00:25:27;15.30;99.90
44190;DHT22;29856;52.144;5.430;2022-10-17T00:27:52;15.30;99.90
44190;DHT22;29856;52.144;5.430;2022-10-17T00:30:18;15.30;99.90
44190;DHT22;29856;52.144;5.430;2022-10-17T00:32:43;15.30;99.90
44190;DHT22;29856;52.144;5.430;2022-10-17T00:35:09;15.20;99.90
44190;DHT22;29856;52.144;5.430;2022-10-17T00:37:34;15.20;99.90
44190;DHT22;29856;52.144;5.430;2022-10-17T00:40:00;15.20;99.90
44190;DHT22;29856;52.144;5.430;2022-10-17T00:42:26;15.20;99.90
44190;DHT22;29856;52.144;5.430;2022-10-17T00:44:59;15.20;99.90
44190;DHT22;29856;52.144;5.430;2022-10-17T00:47:25;15.20;99.90
44190;DHT22;29856;52.144;5.430;2022-10-17T00:49:51;15.20;99.90
44190;DHT22;29856;52.144;5.430;2022-10-17T00:52:21;15.20;99.90
44190;DHT22;29856;52.144;5.430;2022-10-17T00:54:57;15.20;99.90
44190;DHT22;29856;52.144;5.430;2022-10-17T00:57:24;15.20;99.90
44190;DHT22;29856;52.144;5.430;2022-10-17T00:59:53;15.20;99.90
44190;DHT22;29856;52.144;5.430;2022-10-17T01:02:21;15.30;99.90
44190;DHT22;29856;52.144;5.430;2022-10-17T01:04:49;15.30;99.90
44190;DHT22;29856;52.144;5.430;2022-10-17T01:07:15;15.30;99.90
44190;DHT22;29856;52.144;5.430;2022-10-17T01:09:42;15.30;99.90
44190;DHT22;29856;52.144;5.430;2022-10-17T01:15:33;15.20;99.90
44190;DHT22;29856;52.144;5.430;2022-10-17T01:18:11;15.10;99.90
44190;DHT22;29856;52.144;5.430;2022-10-17T01:21:22;15.00;99.90
44190;DHT22;29856;52.144;5.430;2022-10-17T01:29:46;14.90;99.90
44190;DHT22;29856;52.144;5.430;2022-10-17T01:32:22;14.90;99.90
44190;DHT22;29856;52.144;5.430;2022-10-17T01:35:03;15.00;99.90
44190;DHT22;29856;52.144;5.430;2022-10-17T01:37:43;15.00;99.90
44190;DHT22;29856;52.144;5.430;2022-10-17T01:40:15;15.00;99.90
44190;DHT22;29856;52.144;5.430;2022-10-17T01:43:28;15.00;99.90
44190;DHT22;29856;52.144;5.430;2022-10-17T01:45:40;15.10;99.90
44190;DHT22;29856;52.144;5.430;2022-10-17T01:48:16;15.10;99.90
44190;DHT22;29856;52.144;5.430;2022-10-17T01:50:57;15.10;99.90
44190;DHT22;29856;52.144;5.430;2022-10-17T01:53:32;15.10;99.90
44190;DHT22;29856;52.144;5.430;2022-10-17T01:56:00;15.10;99.90
44190;DHT22;29856;52.144;5.430;2022-10-17T01:58:30;15.10;99.90
44190;DHT22;29856;52.144;5.430;2022-10-17T02:00:59;15.00;99.90
44190;DHT22;29856;52.144;5.430;2022-10-17T02:03:27;15.00;99.90
44190;DHT22;29856;52.144;5.430;2022-10-17T02:05:53;14.90;99.90
44190;DHT22;29856;52.144;5.430;2022-10-17T02:08:43;14.80;99.90
44190;DHT22;29856;52.144;5.430;2022-10-17T02:11:14;14.90;99.90
44190;DHT22;29856;52.144;5.430;2022-10-17T02:16:49;14.90;99.90
44190;DHT22;29856;52.144;5.430;2022-10-17T02:25:17;15.00;99.90
44190;DHT22;29856;52.144;5.430;2022-10-17T02:27:54;14.90;99.90
44190;DHT22;29856;52.144;5.430;2022-10-17T02:31:00;15.00;99.90
44190;DHT22;29856;52.144;5.430;2022-10-17T02:33:46;14.90;99.90
44190;DHT22;29856;52.144;5.430;2022-10-17T02:36:20;15.00;99.90
44190;DHT22;29856;52.144;5.430;2022-10-17T02:38:48;15.00;99.90
44190;DHT22;29856;52.144;5.430;2022-10-17T02:41:16;15.00;99.90
44190;DHT22;29856;52.144;5.430;2022-10-17T02:43:42;14.90;99.90
44190;DHT22;29856;52.144;5.430;2022-10-17T02:46:09;15.00;99.90
44190;DHT22;29856;52.144;5.430;2022-10-17T02:48:43;15.00;99.90
44190;DHT22;29856;52.144;5.430;2022-10-17T02:54:02;15.00;99.90
44190;DHT22;29856;52.144;5.430;2022-10-17T02:56:35;15.00;99.90
44190;DHT22;29856;52.144;5.430;2022-10-17T02:59:02;15.10;99.90
44190;DHT22;29856;52.144;5.430;2022-10-17T03:01:29;15.10;99.90
44190;DHT22;29856;52.144;5.430;2022-10-17T03:04:10;15.10;99.90
44190;DHT22;29856;52.144;5.430;2022-10-17T03:06:36;15.10;99.90
44190;DHT22;29856;52.144;5.430;2022-10-17T03:09:01;15.10;99.90
44190;DHT22;29856;52.144;5.430;2022-10-17T03:11:27;15.10;99.90
44190;DHT22;29856;52.144;5.430;2022-10-17T03:13:52;15.10;99.90
44190;DHT22;29856;52.144;5.430;2022-10-17T03:16:18;15.10;99.90
44190;DHT22;29856;52.144;5.430;2022-10-17T03:18:43;15.20;99.90
44190;DHT22;29856;52.144;5.430;2022-10-17T03:21:09;15.20;99.90
44190;DHT22;29856;52.144;5.430;2022-10-17T03:23:34;15.30;99.90
44190;DHT22;29856;52.144;5.430;2022-10-17T03:26:05;15.30;99.90
44190;DHT22;29856;52.144;5.430;2022-10-17T03:28:31;15.30;99.90
44190;DHT22;29856;52.144;5.430;2022-10-17T03:30:57;15.30;99.90
44190;DHT22;29856;52.144;5.430;2022-10-17T03:33:22;15.40;99.90
44190;DHT22;29856;52.144;5.430;2022-10-17T03:35:48;15.40;99.90
44190;DHT22;29856;52.144;5.430;2022-10-17T03:38:13;15.40;99.90
44190;DHT22;29856;52.144;5.430;2022-10-17T03:40:38;15.50;99.90
44190;DHT22;29856;52.144;5.430;2022-10-17T03:43:04;15.40;99.90
44190;DHT22;29856;52.144;5.430;2022-10-17T03:45:30;15.50;99.90
44190;DHT22;29856;52.144;5.430;2022-10-17T03:47:56;15.50;99.90
44190;DHT22;29856;52.144;5.430;2022-10-17T03:50:22;15.50;99.90
44190;DHT22;29856;52.144;5.430;2022-10-17T03:52:48;15.50;99.90
44190;DHT22;29856;52.144;5.430;2022-10-17T03:55:14;15.50;99.90
44190;DHT22;29856;52.144;5.430;2022-10-17T03:57:40;15.60;99.90
44190;DHT22;29856;52.144;5.430;2022-10-17T04:00:06;15.60;99.90
44190;DHT22;29856;52.144;5.430;2022-10-17T04:02:32;15.60;99.90
44190;DHT22;29856;52.144;5.430;2022-10-17T04:04:57;15.70;99.90
44190;DHT22;29856;52.144;5.430;2022-10-17T04:07:22;15.70;99.90
44190;DHT22;29856;52.144;5.430;2022-10-17T04:09:48;15.70;99.90
44190;DHT22;29856;52.144;5.430;2022-10-17T04:12:13;15.70;99.90
44190;DHT22;29856;52.144;5.430;2022-10-17T04:14:39;15.80;99.90
44190;DHT22;29856;52.144;5.430;2022-10-17T04:17:04;15.70;99.90
44190;DHT22;29856;52.144;5.430;2022-10-17T04:19:30;15.80;99.90
44190;DHT22;29856;52.144;5.430;2022-10-17T04:21:55;15.80;99.90
44190;DHT22;29856;52.144;5.430;2022-10-17T04:24:21;15.80;99.90
44190;DHT22;29856;52.144;5.430;2022-10-17T04:26:48;15.90;99.90
44190;DHT22;29856;52.144;5.430;2022-10-17T04:29:14;15.80;99.90
44190;DHT22;29856;52.144;5.430;2022-10-17T04:31:39;15.80;99.90
44190;DHT22;29856;52.144;5.430;2022-10-17T04:34:05;15.80;99.90
44190;DHT22;29856;52.144;5.430;2022-10-17T04:36:30;15.80;99.90
44190;DHT22;29856;52.144;5.430;2022-10-17T04:38:56;15.80;99.90
44190;DHT22;29856;52.144;5.430;2022-10-17T04:41:21;15.80;99.90
44190;DHT22;29856;52.144;5.430;2022-10-17T04:43:47;15.90;99.90
44190;DHT22;29856;52.144;5.430;2022-10-17T04:46:14;15.90;99.90
44190;DHT22;29856;52.144;5.430;2022-10-17T04:48:40;15.80;99.90
44190;DHT22;29856;52.144;5.430;2022-10-17T04:51:11;15.90;99.90
44190;DHT22;29856;52.144;5.430;2022-10-17T04:53:41;15.90;99.90
44190;DHT22;29856;52.144;5.430;2022-10-17T04:56:12;15.90;99.90
44190;DHT22;29856;52.144;5.430;2022-10-17T04:58:39;15.90;99.90
44190;DHT22;29856;52.144;5.430;2022-10-17T05:01:07;15.90;99.90
44190;DHT22;29856;52.144;5.430;2022-10-17T05:03:33;15.90;99.90
44190;DHT22;29856;52.144;5.430;2022-10-17T05:06:06;15.90;99.90
44190;DHT22;29856;52.144;5.430;2022-10-17T05:08:31;15.90;99.90
44190;DHT22;29856;52.144;5.430;2022-10-17T05:10:57;16.00;99.90
44190;DHT22;29856;52.144;5.430;2022-10-17T05:13:22;15.90;99.90
44190;DHT22;29856;52.144;5.430;2022-10-17T05:15:48;16.00;99.90
44190;DHT22;29856;52.144;5.430;2022-10-17T05:18:13;16.00;99.90
44190;DHT22;29856;52.144;5.430;2022-10-17T05:20:39;16.00;99.90
44190;DHT22;29856;52.144;5.430;2022-10-17T05:23:04;16.00;99.90
44190;DHT22;29856;52.144;5.430;2022-10-17T05:25:30;16.00;99.90
44190;DHT22;29856;52.144;5.430;2022-10-17T05:27:55;16.10;99.90
44190;DHT22;29856;52.144;5.430;2022-10-17T05:30:21;16.00;99.90
44190;DHT22;29856;52.144;5.430;2022-10-17T05:32:46;16.10;99.90
44190;DHT22;29856;52.144;5.430;2022-10-17T05:35:12;16.10;99.90
44190;DHT22;29856;52.144;5.430;2022-10-17T05:37:37;16.10;99.90
44190;DHT22;29856;52.144;5.430;2022-10-17T05:40:03;16.10;99.90
44190;DHT22;29856;52.144;5.430;2022-10-17T05:42:29;16.20;99.90
44190;DHT22;29856;52.144;5.430;2022-10-17T05:44:54;16.20;99.90
44190;DHT22;29856;52.144;5.430;2022-10-17T05:47:19;16.20;99.90
44190;DHT22;29856;52.144;5.430;2022-10-17T05:49:45;16.20;99.90
44190;DHT22;29856;52.144;5.430;2022-10-17T05:52:10;16.20;99.90
44190;DHT22;29856;52.144;5.430;2022-10-17T05:54:36;16.20;99.90
44190;DHT22;29856;52.144;5.430;2022-10-17T05:57:01;16.20;99.90
44190;DHT22;29856;52.144;5.430;2022-10-17T05:59:27;16.30;99.90
44190;DHT22;29856;52.144;5.430;2022-10-17T06:01:53;16.30;99.90
44190;DHT22;29856;52.144;5.430;2022-10-17T06:04:18;16.30;99.90
44190;DHT22;29856;52.144;5.430;2022-10-17T06:06:44;16.30;99.90
44190;DHT22;29856;52.144;5.430;2022-10-17T06:09:09;16.30;99.90
44190;DHT22;29856;52.144;5.430;2022-10-17T06:11:35;16.30;99.90
44190;DHT22;29856;52.144;5.430;2022-10-17T06:14:01;16.30;99.90
44190;DHT22;29856;52.144;5.430;2022-10-17T06:16:27;16.40;99.90
44190;DHT22;29856;52.144;5.430;2022-10-17T06:18:52;16.40;99.90
44190;DHT22;29856;52.144;5.430;2022-10-17T06:21:21;16.40;99.90
44190;DHT22;29856;52.144;5.430;2022-10-17T06:23:47;16.30;99.90
44190;DHT22;29856;52.144;5.430;2022-10-17T06:26:12;16.30;99.90
44190;DHT22;29856;52.144;5.430;2022-10-17T06:28:37;16.30;99.90
44190;DHT22;29856;52.144;5.430;2022-10-17T06:31:07;16.40;99.90
44190;DHT22;29856;52.144;5.430;2022-10-17T06:33:34;16.40;99.90
44190;DHT22;29856;52.144;5.430;2022-10-17T06:35:59;16.40;99.90
44190;DHT22;29856;52.144;5.430;2022-10-17T06:38:25;16.40;99.90
44190;DHT22;29856;52.144;5.430;2022-10-17T06:40:51;16.40;99.90
44190;DHT22;29856;52.144;5.430;2022-10-17T06:43:16;16.40;99.90
44190;DHT22;29856;52.144;5.430;2022-10-17T06:45:42;16.40;99.90
44190;DHT22;29856;52.144;5.430;2022-10-17T06:48:09;16.40;99.90
44190;DHT22;29856;52.144;5.430;2022-10-17T06:50:35;16.40;99.90
44190;DHT22;29856;52.144;5.430;2022-10-17T06:53:00;16.50;99.90
44190;DHT22;29856;52.144;5.430;2022-10-17T06:55:26;16.50;99.90
44190;DHT22;29856;52.144;5.430;2022-10-17T06:57:54;16.50;99.90
44190;DHT22;29856;52.144;5.430;2022-10-17T07:00:19;16.50;99.90
44190;DHT22;29856;52.144;5.430;2022-10-17T07:02:45;16.60;99.90
44190;DHT22;29856;52.144;5.430;2022-10-17T07:05:10;16.50;99.90
44190;DHT22;29856;52.144;5.430;2022-10-17T07:07:36;16.60;99.90
44190;DHT22;29856;52.144;5.430;2022-10-17T07:10:02;16.60;99.90
44190;DHT22;29856;52.144;5.430;2022-10-17T07:12:27;16.60;99.90
44190;DHT22;29856;52.144;5.430;2022-10-17T07:14:53;16.60;99.90
44190;DHT22;29856;52.144;5.430;2022-10-17T07:17:18;16.60;99.90
44190;DHT22;29856;52.144;5.430;2022-10-17T07:19:44;16.70;99.90
44190;DHT22;29856;52.144;5.430;2022-10-17T07:22:10;16.60;99.90
44190;DHT22;29856;52.144;5.430;2022-10-17T07:24:36;16.70;99.90
44190;DHT22;29856;52.144;5.430;2022-10-17T07:27:01;16.70;99.90
44190;DHT22;29856;52.144;5.430;2022-10-17T07:29:27;16.70;99.90
44190;DHT22;29856;52.144;5.430;2022-10-17T07:31:52;16.70;99.90
44190;DHT22;29856;52.144;5.430;2022-10-17T07:34:18;16.70;99.90
44190;DHT22;29856;52.144;5.430;2022-10-17T07:36:44;16.70;99.90
44190;DHT22;29856;52.144;5.430;2022-10-17T07:39:09;16.70;99.90
44190;DHT22;29856;52.144;5.430;2022-10-17T07:41:35;16.70;99.90
44190;DHT22;29856;52.144;5.430;2022-10-17T07:44:00;16.80;99.90
44190;DHT22;29856;52.144;5.430;2022-10-17T07:46:26;16.80;99.90
44190;DHT22;29856;52.144;5.430;2022-10-17T07:48:51;16.80;99.90
44190;DHT22;29856;52.144;5.430;2022-10-17T07:51:17;16.80;99.90
44190;DHT22;29856;52.144;5.430;2022-10-17T07:53:43;16.80;99.90
44190;DHT22;29856;52.144;5.430;2022-10-17T07:56:10;16.80;99.90
44190;DHT22;29856;52.144;5.430;2022-10-17T07:58:36;16.90;99.90
44190;DHT22;29856;52.144;5.430;2022-10-17T08:01:05;16.90;99.90
44190;DHT22;29856;52.144;5.430;2022-10-17T08:03:31;16.90;99.90
44190;DHT22;29856;52.144;5.430;2022-10-17T08:05:57;16.80;99.90
44190;DHT22;29856;52.144;5.430;2022-10-17T08:08:23;16.90;99.90
44190;DHT22;29856;52.144;5.430;2022-10-17T08:10:49;16.90;99.90
44190;DHT22;29856;52.144;5.430;2022-10-17T08:13:14;16.90;99.90
44190;DHT22;29856;52.144;5.430;2022-10-17T08:15:40;16.90;99.90
44190;DHT22;29856;52.144;5.430;2022-10-17T08:18:05;16.90;99.90
44190;DHT22;29856;52.144;5.430;2022-10-17T08:20:31;16.90;99.90
44190;DHT22;29856;52.144;5.430;2022-10-17T08:22:56;16.90;99.90
44190;DHT22;29856;52.144;5.430;2022-10-17T08:25:22;16.90;99.90
44190;DHT22;29856;52.144;5.430;2022-10-17T08:27:48;16.90;99.90
44190;DHT22;29856;52.144;5.430;2022-10-17T08:30:13;16.90;99.90
44190;DHT22;29856;52.144;5.430;2022-10-17T08:32:39;16.90;99.90
44190;DHT22;29856;52.144;5.430;2022-10-17T08:35:05;16.90;99.90
44190;DHT22;29856;52.144;5.430;2022-10-17T08:37:31;16.90;99.90
44190;DHT22;29856;52.144;5.430;2022-10-17T08:39:56;17.00;99.90
44190;DHT22;29856;52.144;5.430;2022-10-17T08:45:11;17.00;99.90
44190;DHT22;29856;52.144;5.430;2022-10-17T08:47:44;17.10;99.90
44190;DHT22;29856;52.144;5.430;2022-10-17T08:53:22;17.10;99.90
44190;DHT22;29856;52.144;5.430;2022-10-17T08:55:50;17.10;99.90
44190;DHT22;29856;52.144;5.430;2022-10-17T09:06:28;17.10;99.90
44190;DHT22;29856;52.144;5.430;2022-10-17T09:11:55;17.20;99.90
44190;DHT22;29856;52.144;5.430;2022-10-17T09:20:17;17.30;99.90
44190;DHT22;29856;52.144;5.430;2022-10-17T09:25:20;17.30;99.90
44190;DHT22;29856;52.144;5.430;2022-10-17T09:27:52;17.40;99.90
44190;DHT22;29856;52.144;5.430;2022-10-17T09:33:20;17.40;99.90
44190;DHT22;29856;52.144;5.430;2022-10-17T09:35:45;17.50;99.90
44190;DHT22;29856;52.144;5.430;2022-10-17T09:38:17;17.40;99.90
44190;DHT22;29856;52.144;5.430;2022-10-17T09:40:53;17.50;99.90
44190;DHT22;29856;52.144;5.430;2022-10-17T09:43:19;17.40;99.90
44190;DHT22;29856;52.144;5.430;2022-10-17T09:50:45;17.50;99.90
44190;DHT22;29856;52.144;5.430;2022-10-17T09:53:23;17.50;99.90
44190;DHT22;29856;52.144;5.430;2022-10-17T09:55:53;17.40;99.90
44190;DHT22;29856;52.144;5.430;2022-10-17T09:58:20;17.50;99.90
44190;DHT22;29856;52.144;5.430;2022-10-17T10:00:47;17.50;99.90
44190;DHT22;29856;52.144;5.430;2022-10-17T10:03:21;17.50;99.90
44190;DHT22;29856;52.144;5.430;2022-10-17T10:08:55;17.60;99.90
44190;DHT22;29856;52.144;5.430;2022-10-17T10:14:12;17.60;99.90
44190;DHT22;29856;52.144;5.430;2022-10-17T10:16:44;17.70;99.90
44190;DHT22;29856;52.144;5.430;2022-10-17T10:19:23;17.60;99.90
44190;DHT22;29856;52.144;5.430;2022-10-17T10:21:59;17.60;99.90
44190;DHT22;29856;52.144;5.430;2022-10-17T10:24:25;17.60;99.90
44190;DHT22;29856;52.144;5.430;2022-10-17T10:26:51;17.70;99.90
44190;DHT22;29856;52.144;5.430;2022-10-17T10:29:26;17.70;99.90
44190;DHT22;29856;52.144;5.430;2022-10-17T10:31:52;17.70;99.90
44190;DHT22;29856;52.144;5.430;2022-10-17T10:34:25;17.70;99.90
44190;DHT22;29856;52.144;5.430;2022-10-17T10:37:03;17.70;99.90
44190;DHT22;29856;52.144;5.430;2022-10-17T10:39:37;17.80;99.90
44190;DHT22;29856;52.144;5.430;2022-10-17T10:42:15;17.70;99.90
44190;DHT22;29856;52.144;5.430;2022-10-17T10:44:41;17.80;99.90
44190;DHT22;29856;52.144;5.430;2022-10-17T10:47:19;17.80;99.90
44190;DHT22;29856;52.144;5.430;2022-10-17T10:49:45;17.70;99.90
44190;DHT22;29856;52.144;5.430;2022-10-17T10:52:26;17.80;99.90
44190;DHT22;29856;52.144;5.430;2022-10-17T10:55:02;17.70;99.90
44190;DHT22;29856;52.144;5.430;2022-10-17T10:57:32;17.70;99.90
44190;DHT22;29856;52.144;5.430;2022-10-17T11:00:11;17.80;99.90
44190;DHT22;29856;52.144;5.430;2022-10-17T11:02:44;17.70;99.90
44190;DHT22;29856;52.144;5.430;2022-10-17T11:05:17;17.80;99.90
44190;DHT22;29856;52.144;5.430;2022-10-17T11:11:01;17.80;99.90
44190;DHT22;29856;52.144;5.430;2022-10-17T11:16:10;17.80;99.90
44190;DHT22;29856;52.144;5.430;2022-10-17T11:18:44;17.90;99.90
44190;DHT22;29856;52.144;5.430;2022-10-17T11:23:45;18.00;99.90
44190;DHT22;29856;52.144;5.430;2022-10-17T11:26:22;18.00;99.90
44190;DHT22;29856;52.144;5.430;2022-10-17T11:28:49;18.00;99.90
44190;DHT22;29856;52.144;5.430;2022-10-17T11:31:16;18.00;99.90
44190;DHT22;29856;52.144;5.430;2022-10-17T11:36:26;18.00;99.90
44190;DHT22;29856;52.144;5.430;2022-10-17T11:39:10;18.00;99.90
44190;DHT22;29856;52.144;5.430;2022-10-17T11:41:53;18.00;99.90
44190;DHT22;29856;52.144;5.430;2022-10-17T11:44:39;18.00;99.90
44190;DHT22;29856;52.144;5.430;2022-10-17T11:55:41;18.00;99.90
44190;DHT22;29856;52.144;5.430;2022-10-17T11:58:34;18.00;99.90
44190;DHT22;29856;52.144;5.430;2022-10-17T12:01:20;18.00;99.90
44190;DHT22;29856;52.144;5.430;2022-10-17T12:07:04;18.10;99.90
44190;DHT22;29856;52.144;5.430;2022-10-17T12:09:54;18.10;99.90
44190;DHT22;29856;52.144;5.430;2022-10-17T12:12:26;18.10;99.90
44190;DHT22;29856;52.144;5.430;2022-10-17T12:14:52;18.20;99.90
44190;DHT22;29856;52.144;5.430;2022-10-17T12:17:36;18.20;99.90
44190;DHT22;29856;52.144;5.430;2022-10-17T12:22:50;18.20;99.90
44190;DHT22;29856;52.144;5.430;2022-10-17T12:25:28;18.20;99.90
44190;DHT22;29856;52.144;5.430;2022-10-17T12:30:35;18.30;99.90
44190;DHT22;29856;52.144;5.430;2022-10-17T12:35:36;18.20;99.90
44190;DHT22;29856;52.144;5.430;2022-10-17T12:48:09;18.30;99.90
44190;DHT22;29856;52.144;5.430;2022-10-17T12:56:17;18.30;99.90
44190;DHT22;29856;52.144;5.430;2022-10-17T12:58:47;18.30;99.90
44190;DHT22;29856;52.144;5.430;2022-10-17T13:01:22;18.30;99.90
44190;DHT22;29856;52.144;5.430;2022-10-17T13:03:52;18.20;99.90
44190;DHT22;29856;52.144;5.430;2022-10-17T13:06:26;18.30;99.90
44190;DHT22;29856;52.144;5.430;2022-10-17T13:08:57;18.20;99.90
44190;DHT22;29856;52.144;5.430;2022-10-17T13:11:25;18.20;99.90
44190;DHT22;29856;52.144;5.430;2022-10-17T13:13:53;18.20;99.90
44190;DHT22;29856;52.144;5.430;2022-10-17T13:18:52;18.10;99.90
44190;DHT22;29856;52.144;5.430;2022-10-17T13:21:19;18.10;99.90
44190;DHT22;29856;52.144;5.430;2022-10-17T13:23:45;18.10;99.90
44190;DHT22;29856;52.144;5.430;2022-10-17T13:26:17;18.00;99.90
44190;DHT22;29856;52.144;5.430;2022-10-17T13:28:43;18.10;99.90
44190;DHT22;29856;52.144;5.430;2022-10-17T13:31:33;18.00;99.90
44190;DHT22;29856;52.144;5.430;2022-10-17T13:34:01;18.10;99.90
44190;DHT22;29856;52.144;5.430;2022-10-17T13:36:28;18.00;99.90
44190;DHT22;29856;52.144;5.430;2022-10-17T13:38:54;18.10;99.90
44190;DHT22;29856;52.144;5.430;2022-10-17T13:41:27;18.10;99.90
44190;DHT22;29856;52.144;5.430;2022-10-17T13:43:53;18.10;99.90
44190;DHT22;29856;52.144;5.430;2022-10-17T13:46:29;18.20;99.90
44190;DHT22;29856;52.144;5.430;2022-10-17T13:49:09;18.30;99.90
44190;DHT22;29856;52.144;5.430;2022-10-17T13:51:35;18.20;99.90
44190;DHT22;29856;52.144;5.430;2022-10-17T13:54:01;18.30;99.90
44190;DHT22;29856;52.144;5.430;2022-10-17T13:56:27;18.40;99.90
44190;DHT22;29856;52.144;5.430;2022-10-17T13:58:56;18.40;99.90
44190;DHT22;29856;52.144;5.430;2022-10-17T14:01:27;18.40;99.90
44190;DHT22;29856;52.144;5.430;2022-10-17T14:03:53;18.40;99.90
44190;DHT22;29856;52.144;5.430;2022-10-17T14:06:26;18.40;99.90
44190;DHT22;29856;52.144;5.430;2022-10-17T14:08:58;18.40;99.90
44190;DHT22;29856;52.144;5.430;2022-10-17T14:11:39;18.40;99.90
44190;DHT22;29856;52.144;5.430;2022-10-17T14:14:07;18.50;99.90
44190;DHT22;29856;52.144;5.430;2022-10-17T14:16:40;18.40;99.90
44190;DHT22;29856;52.144;5.430;2022-10-17T14:19:18;18.50;99.90
44190;DHT22;29856;52.144;5.430;2022-10-17T14:21:48;18.40;99.90
44190;DHT22;29856;52.144;5.430;2022-10-17T14:24:34;18.40;99.90
44190;DHT22;29856;52.144;5.430;2022-10-17T14:26:59;18.50;99.90
44190;DHT22;29856;52.144;5.430;2022-10-17T14:29:29;18.50;99.90
44190;DHT22;29856;52.144;5.430;2022-10-17T14:32:05;18.50;99.90
44190;DHT22;29856;52.144;5.430;2022-10-17T14:34:34;18.50;99.90
44190;DHT22;29856;52.144;5.430;2022-10-17T14:37:00;18.60;99.90
44190;DHT22;29856;52.144;5.430;2022-10-17T14:39:27;18.60;99.90
44190;DHT22;29856;52.144;5.430;2022-10-17T14:41:53;18.70;99.90
44190;DHT22;29856;52.144;5.430;2022-10-17T14:44:34;18.80;99.90
44190;DHT22;29856;52.144;5.430;2022-10-17T14:47:02;18.80;99.90
44190;DHT22;29856;52.144;5.430;2022-10-17T14:49:35;18.90;99.90
44190;DHT22;29856;52.144;5.430;2022-10-17T14:54:44;19.00;99.90
44190;DHT22;29856;52.144;5.430;2022-10-17T14:59:58;18.90;99.90
44190;DHT22;29856;52.144;5.430;2022-10-17T15:02:25;18.90;99.90
44190;DHT22;29856;52.144;5.430;2022-10-17T15:04:51;18.90;99.90
44190;DHT22;29856;52.144;5.430;2022-10-17T15:07:17;18.90;99.90
44190;DHT22;29856;52.144;5.430;2022-10-17T15:09:43;18.80;99.90
44190;DHT22;29856;52.144;5.430;2022-10-17T15:12:17;18.80;99.90
44190;DHT22;29856;52.144;5.430;2022-10-17T15:14:44;18.80;99.90
44190;DHT22;29856;52.144;5.430;2022-10-17T15:17:31;18.80;99.90
44190;DHT22;29856;52.144;5.430;2022-10-17T15:19:57;18.80;99.90
44190;DHT22;29856;52.144;5.430;2022-10-17T15:22:23;18.80;99.90
44190;DHT22;29856;52.144;5.430;2022-10-17T15:24:49;18.80;99.90
44190;DHT22;29856;52.144;5.430;2022-10-17T15:27:22;18.80;99.90
44190;DHT22;29856;52.144;5.430;2022-10-17T15:29:48;18.80;99.90
44190;DHT22;29856;52.144;5.430;2022-10-17T15:32:15;18.80;99.90
44190;DHT22;29856;52.144;5.430;2022-10-17T15:34:40;18.80;99.90
44190;DHT22;29856;52.144;5.430;2022-10-17T15:37:17;18.80;99.90
44190;DHT22;29856;52.144;5.430;2022-10-17T15:39:43;18.70;99.90
44190;DHT22;29856;52.144;5.430;2022-10-17T15:42:10;18.70;99.90
44190;DHT22;29856;52.144;5.430;2022-10-17T15:44:36;18.70;99.90
44190;DHT22;29856;52.144;5.430;2022-10-17T15:47:01;18.70;99.90
44190;DHT22;29856;52.144;5.430;2022-10-17T15:49:27;18.70;99.90
44190;DHT22;29856;52.144;5.430;2022-10-17T15:51:52;18.70;99.90
44190;DHT22;29856;52.144;5.430;2022-10-17T15:54:18;18.60;99.90
44190;DHT22;29856;52.144;5.430;2022-10-17T15:56:47;18.60;99.90
44190;DHT22;29856;52.144;5.430;2022-10-17T15:59:17;18.50;99.90
44190;DHT22;29856;52.144;5.430;2022-10-17T16:01:44;18.50;99.90
44190;DHT22;29856;52.144;5.430;2022-10-17T16:04:12;18.50;99.90
44190;DHT22;29856;52.144;5.430;2022-10-17T16:06:38;18.50;99.90
44190;DHT22;29856;52.144;5.430;2022-10-17T16:09:03;18.40;99.90
44190;DHT22;29856;52.144;5.430;2022-10-17T16:14:00;18.40;99.90
44190;DHT22;29856;52.144;5.430;2022-10-17T16:16:27;18.30;99.90
44190;DHT22;29856;52.144;5.430;2022-10-17T16:18:53;18.30;99.90
44190;DHT22;29856;52.144;5.430;2022-10-17T16:21:20;18.30;99.90
44190;DHT22;29856;52.144;5.430;2022-10-17T16:23:46;18.30;99.90
44190;DHT22;29856;52.144;5.430;2022-10-17T16:26:12;18.20;99.90
44190;DHT22;29856;52.144;5.430;2022-10-17T16:28:37;18.30;99.90
44190;DHT22;29856;52.144;5.430;2022-10-17T16:31:03;18.20;99.90
44190;DHT22;29856;52.144;5.430;2022-10-17T16:33:28;18.10;99.90
44190;DHT22;29856;52.144;5.430;2022-10-17T16:35:54;18.10;99.90
44190;DHT22;29856;52.144;5.430;2022-10-17T16:38:19;18.10;99.90
44190;DHT22;29856;52.144;5.430;2022-10-17T16:40:45;18.10;99.90
44190;DHT22;29856;52.144;5.430;2022-10-17T16:43:13;18.00;99.90
44190;DHT22;29856;52.144;5.430;2022-10-17T16:45:39;18.00;99.90
44190;DHT22;29856;52.144;5.430;2022-10-17T16:48:05;18.00;99.90
44190;DHT22;29856;52.144;5.430;2022-10-17T16:50:30;17.90;99.90
44190;DHT22;29856;52.144;5.430;2022-10-17T16:52:56;17.80;99.90
44190;DHT22;29856;52.144;5.430;2022-10-17T16:55:21;17.80;99.90
44190;DHT22;29856;52.144;5.430;2022-10-17T16:57:47;17.80;99.90
44190;DHT22;29856;52.144;5.430;2022-10-17T17:00:12;17.80;99.90
44190;DHT22;29856;52.144;5.430;2022-10-17T17:02:38;17.70;99.90
44190;DHT22;29856;52.144;5.430;2022-10-17T17:05:04;17.70;99.90
44190;DHT22;29856;52.144;5.430;2022-10-17T17:07:29;17.70;99.90
44190;DHT22;29856;52.144;5.430;2022-10-17T17:09:55;17.60;99.90
44190;DHT22;29856;52.144;5.430;2022-10-17T17:12:21;17.60;99.90
44190;DHT22;29856;52.144;5.430;2022-10-17T17:14:46;17.60;99.90
44190;DHT22;29856;52.144;5.430;2022-10-17T17:17:12;17.60;99.90
44190;DHT22;29856;52.144;5.430;2022-10-17T17:19:37;17.60;99.90
44190;DHT22;29856;52.144;5.430;2022-10-17T17:22:03;17.60;99.90
44190;DHT22;29856;52.144;5.430;2022-10-17T17:24:28;17.60;99.90
44190;DHT22;29856;52.144;5.430;2022-10-17T17:26:55;17.60;99.90
44190;DHT22;29856;52.144;5.430;2022-10-17T17:29:21;17.60;99.90
44190;DHT22;29856;52.144;5.430;2022-10-17T17:31:47;17.60;99.90
44190;DHT22;29856;52.144;5.430;2022-10-17T17:34:13;17.50;99.90
44190;DHT22;29856;52.144;5.430;2022-10-17T17:36:39;17.40;99.90